Pendleton, OR (97801)

6:57 PM PST en Diciembre 19, 2014 (GMT -0800)
Sun Ridge Estates | Change Station
CLOSE
Current Station
Estación meteorológica personal
Location: Pendleton, OR
Altura: 1210 ft
Estaciones meteorológicas cercanas
Aviso en curso: Areal Flood Watch, Wind Advisory

Alt 1210 ft 45.65 °N, 118.79 °W | Updated 8 minutes ago

Parcialmente nublado
Parcialmente nublado
35.3 ° F
Sensación térmica 35 ° F
N
0.0
Viento Variable Viento desde Sur
Gusts 1.0 mph

Hoy
Alta -- | Baja -- ° F
--% Posibilidad de precipitaciones
Ayer
Alta -- | Baja -- ° F
Precip. -- pul
7:31 AM 4:12 PM
Creciente menguante, 5% visible
Presión 30.03 pul
Visibilidad 8.0 Millas
Nubes Despejado
Vientos helados 35 ° F
Punto de rocío 35 ° F
Humedad 100%
Precipitaciones 0.29 pul
Espesor de la nieve No disponible.
UV 0 de una escala de 12
Polen .30 de una escala de 12
Calidad del aire No disponible.
Flu Activity No disponible.
METAR KPDT 200253Z AUTO 14004KT 8SM CLR 03/02 A3001 RMK AO2 SLP168 T00330022 50003

More Conditions Fewer Conditions

Presión 30.03 pul
Visibilidad 8.0 Millas
Nubes Despejado
Vientos helados 35 ° F
Punto de rocío 35 ° F
Humedad 100%
Precipitaciones 0.29 pul
Espesor de la nieve No disponible.
UV 0 de una escala de 12
Polen .30 de una escala de 12
Calidad del aire No disponible.
Flu Activity No disponible.
METAR KPDT 200253Z AUTO 14004KT 8SM CLR 03/02 A3001 RMK AO2 SLP168 T00330022 50003

More Conditions Fewer Conditions

10-Day Weather Forecast

Almanac

Astronomía

Dec. 19, 2014 Salida Puesta
Hora real
Crepúsculo civil
Crepúsculo náutico
Crepúsculo astronómico
Luna
Horas de luz
Horas de luz
Tomorrow will be .
, % of the Moon is Illuminated

Extremos de hoy

Máximos del estado Bajos del estado

Community

WunderPhotos

Upload Photos

1,779,116 ¡fotos cargadas!

WunderBlogs® & News

Nearby

Calidad del aire

  Calidad del aire Índice AQ Contaminante
Not available.

Grosos de nieve

Estación Profundido Altura

Actividad de terremotos

Ciudad Distance Mag. Tiempo y dato
Magnitud mínima muestra es 2,5.

Temperaturas de aguas costeras

Lugar Temperatura

Estaciones meteorológicas cercanas